Time;durP1;ratioP1;P1;durP2;ratioP2;P2;SDS_P1;SDS_P2;PMS_P1;PMS_P2;Temp;Humidity;BMP_temperature;BMP_pressure;BME280_temperature;BME280_humidity;BME280_pressure;Samples;Min_cycle;Max_cycle;Signal;HPM_P1;HPM_P2
2021/08/27 00:01:06;;;;;;;7.93;5.22;;;;;;;;;;5091248;28;20016;-66
2021/08/27 00:03:32;;;;;;;11.95;5.45;;;;;;;;;;5092964;28;20028;-65
2021/08/27 00:05:58;;;;;;;12.80;6.35;;;;;;;;;;5088108;28;20031;-65
2021/08/27 00:08:25;;;;;;;11.70;5.18;;;;;;;;;;5081735;28;20028;-66
2021/08/27 00:10:51;;;;;;;8.70;5.18;;;;;;;;;;5077772;28;20051;-66
2021/08/27 00:13:17;;;;;;;10.88;5.15;;;;;;;;;;5089719;28;20031;-65
2021/08/27 00:15:43;;;;;;;9.00;5.00;;;;;;;;;;5090484;28;20027;-65
2021/08/27 00:18:09;;;;;;;7.72;4.97;;;;;;;;;;5089244;28;20040;-66
2021/08/27 00:20:38;;;;;;;8.90;5.05;;;;;;;;;;5090271;28;20023;-66
2021/08/27 00:23:04;;;;;;;11.75;5.45;;;;;;;;;;5087936;28;20028;-66
2021/08/27 00:25:30;;;;;;;12.40;6.20;;;;;;;;;;5094341;28;20024;-65
2021/08/27 00:27:56;;;;;;;9.68;5.10;;;;;;;;;;5085004;28;20016;-66
2021/08/27 00:30:22;;;;;;;14.18;5.68;;;;;;;;;;5093074;28;20409;-65
2021/08/27 00:32:49;;;;;;;9.50;5.53;;;;;;;;;;5089771;28;20016;-65
2021/08/27 00:35:15;;;;;;;15.13;6.00;;;;;;;;;;5092218;28;20020;-66
2021/08/27 00:37:41;;;;;;;11.18;6.15;;;;;;;;;;5094348;28;20028;-65
2021/08/27 00:40:08;;;;;;;9.07;5.68;;;;;;;;;;5092387;28;20024;-67
2021/08/27 00:42:34;;;;;;;10.18;5.97;;;;;;;;;;5091312;28;20024;-65
2021/08/27 00:45:01;;;;;;;11.88;5.95;;;;;;;;;;5074948;28;20428;-66
2021/08/27 00:47:27;;;;;;;15.07;5.32;;;;;;;;;;5092442;28;20028;-66
2021/08/27 00:49:53;;;;;;;12.02;5.45;;;;;;;;;;5095089;28;20020;-65
2021/08/27 00:52:20;;;;;;;9.23;6.10;;;;;;;;;;5092778;28;20427;-65
2021/08/27 00:54:49;;;;;;;12.57;6.00;;;;;;;;;;5092928;28;20071;-66
2021/08/27 00:57:15;;;;;;;13.77;6.20;;;;;;;;;;5089675;28;20036;-66
2021/08/27 00:59:42;;;;;;;11.75;6.38;;;;;;;;;;5094580;28;20071;-67
2021/08/27 01:02:08;;;;;;;9.82;5.70;;;;;;;;;;5092210;28;20035;-65
2021/08/27 01:04:35;;;;;;;11.23;6.00;;;;;;;;;;5090747;28;20028;-66
2021/08/27 01:07:07;;;;;;;10.00;5.93;;;;;;;;;;5092715;28;20027;-66
2021/08/27 01:09:48;;;;;;;12.93;6.90;;;;;;;;;;5091577;28;20028;-66
2021/08/27 01:12:17;;;;;;;10.98;5.80;;;;;;;;;;5092319;28;20032;-66
2021/08/27 01:14:52;;;;;;;9.15;5.85;;;;;;;;;;5092528;28;20379;-66
2021/08/27 01:17:27;;;;;;;8.85;6.30;;;;;;;;;;5092044;28;20035;-66
2021/08/27 01:19:53;;;;;;;8.48;6.22;;;;;;;;;;5092617;28;20358;-65
2021/08/27 01:22:25;;;;;;;13.77;6.05;;;;;;;;;;5092135;28;20053;-66
2021/08/27 01:24:52;;;;;;;9.90;6.25;;;;;;;;;;5092146;28;20048;-66
2021/08/27 01:27:19;;;;;;;12.27;6.38;;;;;;;;;;5092746;28;20095;-66
2021/08/27 01:29:45;;;;;;;9.77;5.65;;;;;;;;;;5091898;28;20112;-65
2021/08/27 01:32:16;;;;;;;12.68;6.20;;;;;;;;;;5090635;28;20484;-65
2021/08/27 01:34:44;;;;;;;8.60;5.88;;;;;;;;;;5093475;28;20091;-65
2021/08/27 01:37:17;;;;;;;13.20;6.50;;;;;;;;;;5092295;28;20041;-66
2021/08/27 01:39:46;;;;;;;9.63;6.32;;;;;;;;;;5091442;28;20441;-65
2021/08/27 01:42:14;;;;;;;12.45;5.80;;;;;;;;;;5089139;28;20024;-66
2021/08/27 01:44:43;;;;;;;9.25;6.15;;;;;;;;;;5091750;28;20020;-65
2021/08/27 01:47:09;;;;;;;10.00;6.07;;;;;;;;;;5089528;28;20023;-65
2021/08/27 01:49:36;;;;;;;8.10;5.28;;;;;;;;;;5094427;28;20023;-66
2021/08/27 01:52:03;;;;;;;7.85;5.30;;;;;;;;;;5088672;28;20024;-66
2021/08/27 01:54:30;;;;;;;10.10;5.78;;;;;;;;;;5092359;28;20051;-66
2021/08/27 01:56:57;;;;;;;12.82;5.40;;;;;;;;;;5089652;28;20119;-66
2021/08/27 01:59:25;;;;;;;8.93;5.38;;;;;;;;;;5088025;28;20442;-67
2021/08/27 02:01:51;;;;;;;8.63;5.88;;;;;;;;;;5085951;28;20488;-66
2021/08/27 02:04:18;;;;;;;11.98;5.50;;;;;;;;;;5088133;28;20032;-66
2021/08/27 02:06:45;;;;;;;14.00;5.22;;;;;;;;;;5090906;28;20543;-65
2021/08/27 02:09:12;;;;;;;7.90;4.85;;;;;;;;;;5091098;28;20035;-65
2021/08/27 02:11:39;;;;;;;8.48;5.75;;;;;;;;;;5089486;28;20020;-66
2021/08/27 02:14:06;;;;;;;7.95;5.32;;;;;;;;;;5083433;28;20027;-66
2021/08/27 02:16:32;;;;;;;11.48;6.03;;;;;;;;;;5084141;28;20032;-65
2021/08/27 02:18:58;;;;;;;8.70;5.43;;;;;;;;;;5087526;28;20100;-65
2021/08/27 02:21:26;;;;;;;9.32;4.88;;;;;;;;;;5090190;28;20040;-65
2021/08/27 02:23:54;;;;;;;11.88;5.18;;;;;;;;;;5075607;28;20028;-65
2021/08/27 02:26:20;;;;;;;10.77;5.10;;;;;;;;;;5091298;28;20012;-65
2021/08/27 02:28:48;;;;;;;9.90;4.57;;;;;;;;;;5097136;28;20024;-66
2021/08/27 02:31:14;;;;;;;7.65;4.63;;;;;;;;;;5094142;28;20632;-65
2021/08/27 02:33:43;;;;;;;6.07;4.05;;;;;;;;;;5099749;28;20032;-66
2021/08/27 02:36:09;;;;;;;7.28;4.18;;;;;;;;;;5098473;28;20026;-66
2021/08/27 02:38:35;;;;;;;6.55;4.32;;;;;;;;;;5094454;28;20036;-65
2021/08/27 02:41:03;;;;;;;7.68;4.22;;;;;;;;;;5096876;28;20024;-66
2021/08/27 02:43:29;;;;;;;9.10;4.07;;;;;;;;;;5094918;28;20103;-65
2021/08/27 02:45:55;;;;;;;7.75;4.30;;;;;;;;;;5092101;28;20028;-65
2021/08/27 02:48:21;;;;;;;6.97;4.13;;;;;;;;;;5091989;28;20020;-65
2021/08/27 02:50:54;;;;;;;10.43;3.90;;;;;;;;;;5092336;28;20069;-66
2021/08/27 02:53:22;;;;;;;7.65;4.05;;;;;;;;;;5093009;28;20076;-66
2021/08/27 02:55:51;;;;;;;8.55;4.50;;;;;;;;;;5091277;28;20071;-66
2021/08/27 02:58:17;;;;;;;5.90;4.47;;;;;;;;;;5092578;28;20032;-66
2021/08/27 03:01:04;;;;;;;7.70;4.88;;;;;;;;;;5094470;28;20081;-66
2021/08/27 03:03:35;;;;;;;9.10;4.53;;;;;;;;;;5088466;28;20036;-65
2021/08/27 03:06:14;;;;;;;6.78;4.15;;;;;;;;;;5091078;28;20128;-65
2021/08/27 03:08:44;;;;;;;7.32;4.32;;;;;;;;;;5087154;28;20749;-65
2021/08/27 03:11:15;;;;;;;9.32;4.53;;;;;;;;;;5088653;28;20023;-65
2021/08/27 03:13:46;;;;;;;9.63;4.78;;;;;;;;;;5087864;28;20031;-65
2021/08/27 03:16:12;;;;;;;6.15;4.00;;;;;;;;;;5093368;28;20034;-65
2021/08/27 03:18:43;;;;;;;9.13;4.40;;;;;;;;;;5090718;28;20798;-65
2021/08/27 03:21:12;;;;;;;10.10;4.95;;;;;;;;;;5091800;28;20054;-65
2021/08/27 03:23:40;;;;;;;6.85;4.30;;;;;;;;;;5089905;28;20055;-65
2021/08/27 03:26:08;;;;;;;7.55;4.70;;;;;;;;;;5093302;28;20020;-65
2021/08/27 03:28:39;;;;;;;7.90;4.28;;;;;;;;;;5090572;28;20028;-65
2021/08/27 03:31:06;;;;;;;7.65;4.97;;;;;;;;;;5086096;28;20042;-65
2021/08/27 03:33:33;;;;;;;8.15;4.75;;;;;;;;;;5086013;28;20024;-65
2021/08/27 03:36:00;;;;;;;6.18;4.30;;;;;;;;;;5084380;28;20104;-65
2021/08/27 03:38:27;;;;;;;4.68;4.15;;;;;;;;;;5088883;28;20028;-65
2021/08/27 03:40:54;;;;;;;6.13;4.78;;;;;;;;;;5087502;28;20365;-65
2021/08/27 03:43:20;;;;;;;7.22;4.28;;;;;;;;;;5083465;28;20020;-65
2021/08/27 03:45:48;;;;;;;7.03;4.35;;;;;;;;;;5090823;28;20062;-65
2021/08/27 03:48:15;;;;;;;6.78;4.55;;;;;;;;;;5090327;28;20105;-65
2021/08/27 03:50:41;;;;;;;8.07;4.78;;;;;;;;;;5093502;28;20365;-65
2021/08/27 03:53:09;;;;;;;10.10;5.05;;;;;;;;;;5090901;28;20027;-65
2021/08/27 03:55:35;;;;;;;9.68;4.80;;;;;;;;;;5093870;28;20051;-65
2021/08/27 03:58:01;;;;;;;6.88;4.45;;;;;;;;;;5090612;28;20515;-65
2021/08/27 04:00:27;;;;;;;6.85;4.72;;;;;;;;;;5091135;28;20016;-65
2021/08/27 04:02:54;;;;;;;8.35;4.68;;;;;;;;;;5091790;28;20854;-65
2021/08/27 04:05:21;;;;;;;7.15;5.10;;;;;;;;;;5092093;28;20579;-65
2021/08/27 04:07:48;;;;;;;7.55;4.70;;;;;;;;;;5086501;28;20081;-65
2021/08/27 04:10:15;;;;;;;6.65;4.22;;;;;;;;;;5092148;28;20115;-65
2021/08/27 04:12:42;;;;;;;6.13;4.35;;;;;;;;;;5085649;28;20020;-65
2021/08/27 04:15:18;;;;;;;6.18;4.70;;;;;;;;;;5090042;28;20031;-65
2021/08/27 04:17:44;;;;;;;9.50;4.60;;;;;;;;;;5083392;28;20043;-65
2021/08/27 04:20:12;;;;;;;9.13;4.93;;;;;;;;;;5091057;28;20024;-65
2021/08/27 04:22:39;;;;;;;8.05;4.95;;;;;;;;;;5087691;28;20020;-65
2021/08/27 04:25:05;;;;;;;6.95;5.07;;;;;;;;;;5086340;28;20673;-65
2021/08/27 04:27:31;;;;;;;7.72;4.68;;;;;;;;;;5071667;28;20508;-65
2021/08/27 04:29:57;;;;;;;6.07;4.28;;;;;;;;;;5088643;28;20027;-65
2021/08/27 04:32:24;;;;;;;8.90;4.22;;;;;;;;;;5088393;28;20492;-65
2021/08/27 04:34:50;;;;;;;7.22;4.53;;;;;;;;;;5089667;28;20035;-65
2021/08/27 04:37:16;;;;;;;8.73;4.05;;;;;;;;;;5088911;28;20046;-65
2021/08/27 04:39:42;;;;;;;8.48;4.53;;;;;;;;;;5075864;28;20033;-65
2021/08/27 04:42:08;;;;;;;6.68;4.35;;;;;;;;;;5084873;28;20035;-65
2021/08/27 04:44:34;;;;;;;7.97;4.88;;;;;;;;;;5088940;28;20500;-65
2021/08/27 04:47:00;;;;;;;5.82;4.03;;;;;;;;;;5084452;28;20032;-65
2021/08/27 04:49:27;;;;;;;6.32;4.55;;;;;;;;;;5091740;28;20087;-65
2021/08/27 04:51:53;;;;;;;7.18;4.43;;;;;;;;;;5087081;28;20023;-65
2021/08/27 04:54:19;;;;;;;8.05;4.45;;;;;;;;;;5086702;28;20097;-65
2021/08/27 04:56:45;;;;;;;9.23;4.93;;;;;;;;;;5087198;28;20048;-65
2021/08/27 04:59:11;;;;;;;8.90;4.78;;;;;;;;;;5089142;28;20032;-65
2021/08/27 05:01:37;;;;;;;10.00;4.85;;;;;;;;;;5088695;28;20098;-65
2021/08/27 05:04:04;;;;;;;6.45;4.28;;;;;;;;;;5087826;28;20084;-65
2021/08/27 05:06:30;;;;;;;14.75;5.28;;;;;;;;;;5088285;28;20036;-71
2021/08/27 05:08:56;;;;;;;13.38;5.25;;;;;;;;;;5089515;28;20475;-69
2021/08/27 05:11:22;;;;;;;8.77;5.05;;;;;;;;;;5086473;28;20648;-69
2021/08/27 05:13:48;;;;;;;10.15;5.15;;;;;;;;;;5092195;28;20050;-69
2021/08/27 05:16:14;;;;;;;6.25;4.50;;;;;;;;;;5088155;28;20111;-69
2021/08/27 05:18:40;;;;;;;8.88;4.90;;;;;;;;;;5081647;28;20024;-69
2021/08/27 05:21:07;;;;;;;8.48;5.15;;;;;;;;;;5088467;28;20055;-69
2021/08/27 05:23:33;;;;;;;7.18;4.95;;;;;;;;;;5090018;28;20028;-70
2021/08/27 05:25:59;;;;;;;9.50;5.18;;;;;;;;;;5087487;28;20037;-69
2021/08/27 05:28:25;;;;;;;10.23;5.30;;;;;;;;;;5090174;28;20026;-69
2021/08/27 05:30:51;;;;;;;14.70;5.38;;;;;;;;;;5092381;28;20030;-69
2021/08/27 05:33:17;;;;;;;13.35;5.93;;;;;;;;;;5090693;28;20036;-69
2021/08/27 05:35:43;;;;;;;12.07;5.30;;;;;;;;;;5087724;28;20065;-70
2021/08/27 05:38:10;;;;;;;6.50;4.80;;;;;;;;;;5089173;28;20058;-69
2021/08/27 05:40:36;;;;;;;11.20;5.30;;;;;;;;;;5088563;28;20090;-69
2021/08/27 05:43:02;;;;;;;11.65;5.30;;;;;;;;;;5067308;28;20426;-69
2021/08/27 05:45:28;;;;;;;10.27;5.20;;;;;;;;;;5089247;28;20233;-69
2021/08/27 05:47:54;;;;;;;8.75;4.85;;;;;;;;;;5091241;28;20403;-69
2021/08/27 05:50:20;;;;;;;10.27;5.53;;;;;;;;;;5088346;28;20692;-70
2021/08/27 05:52:46;;;;;;;10.73;4.80;;;;;;;;;;5091872;28;20034;-70
2021/08/27 05:55:13;;;;;;;9.65;5.25;;;;;;;;;;5085879;28;20535;-69
2021/08/27 05:57:39;;;;;;;12.57;5.43;;;;;;;;;;5086223;28;20506;-72
2021/08/27 06:00:06;;;;;;;8.65;5.55;;;;;;;;;;5087854;28;20534;-70
2021/08/27 06:02:33;;;;;;;9.52;5.80;;;;;;;;;;5092313;28;20024;-69
2021/08/27 06:04:59;;;;;;;7.10;5.15;;;;;;;;;;5090857;28;20488;-69
2021/08/27 06:07:25;;;;;;;11.95;5.32;;;;;;;;;;5085965;28;20093;-70
2021/08/27 06:09:52;;;;;;;7.20;4.47;;;;;;;;;;5089557;28;20370;-70
2021/08/27 06:12:18;;;;;;;9.57;5.45;;;;;;;;;;5088041;28;20115;-69
2021/08/27 06:14:44;;;;;;;11.15;4.43;;;;;;;;;;5087005;28;20095;-68
2021/08/27 06:17:10;;;;;;;9.43;4.57;;;;;;;;;;5091817;28;20411;-70
2021/08/27 06:19:36;;;;;;;8.15;4.95;;;;;;;;;;5086780;28;20141;-70
2021/08/27 06:22:03;;;;;;;8.95;5.55;;;;;;;;;;5086563;28;20023;-69
2021/08/27 06:24:29;;;;;;;6.45;4.20;;;;;;;;;;5086003;28;20391;-69
2021/08/27 06:26:56;;;;;;;7.57;4.78;;;;;;;;;;5086704;28;20028;-70
2021/08/27 06:29:22;;;;;;;11.73;5.32;;;;;;;;;;5089833;28;20046;-69
2021/08/27 06:31:49;;;;;;;7.55;4.63;;;;;;;;;;5088134;28;20026;-70
2021/08/27 06:34:15;;;;;;;11.02;4.68;;;;;;;;;;5089327;28;20031;-70
2021/08/27 06:36:41;;;;;;;6.22;4.30;;;;;;;;;;5092521;28;20027;-70
2021/08/27 06:39:07;;;;;;;9.60;4.53;;;;;;;;;;5090152;28;20017;-71
2021/08/27 06:41:33;;;;;;;12.27;4.35;;;;;;;;;;5092069;28;20013;-70
2021/08/27 06:44:00;;;;;;;10.63;4.35;;;;;;;;;;5092793;28;20548;-70
2021/08/27 06:46:27;;;;;;;6.65;4.10;;;;;;;;;;5090113;28;20410;-71
2021/08/27 06:48:53;;;;;;;5.38;4.03;;;;;;;;;;5095248;28;20044;-70
2021/08/27 06:51:20;;;;;;;4.63;3.38;;;;;;;;;;5096830;28;20064;-71
2021/08/27 06:53:46;;;;;;;5.50;4.15;;;;;;;;;;5096068;28;20055;-71
2021/08/27 06:56:12;;;;;;;8.52;3.95;;;;;;;;;;5096111;28;20066;-70
2021/08/27 06:58:38;;;;;;;5.70;3.80;;;;;;;;;;5077848;28;20111;-71
2021/08/27 07:01:04;;;;;;;5.30;3.70;;;;;;;;;;5093572;28;20109;-70
2021/08/27 07:03:31;;;;;;;5.20;3.22;;;;;;;;;;5095793;28;20025;-70
2021/08/27 07:05:58;;;;;;;8.23;4.05;;;;;;;;;;5091971;28;20067;-70
2021/08/27 07:08:24;;;;;;;5.30;3.50;;;;;;;;;;5088258;28;20068;-70
2021/08/27 07:10:51;;;;;;;7.10;4.00;;;;;;;;;;5089328;28;20099;-70
2021/08/27 07:13:17;;;;;;;5.55;3.85;;;;;;;;;;5093183;28;20058;-70
2021/08/27 07:15:43;;;;;;;7.13;4.05;;;;;;;;;;5093127;28;20028;-70
2021/08/27 07:18:10;;;;;;;7.13;3.70;;;;;;;;;;5089649;28;20751;-70
2021/08/27 07:20:37;;;;;;;6.60;3.92;;;;;;;;;;5072884;28;20020;-70
2021/08/27 07:23:03;;;;;;;7.15;4.07;;;;;;;;;;5090951;28;20032;-70
2021/08/27 07:25:30;;;;;;;5.80;3.70;;;;;;;;;;5095317;28;20058;-70
2021/08/27 07:27:56;;;;;;;5.85;3.97;;;;;;;;;;5092004;28;20024;-69
2021/08/27 07:30:22;;;;;;;8.35;4.25;;;;;;;;;;5090828;28;20096;-70
2021/08/27 07:32:48;;;;;;;9.50;3.88;;;;;;;;;;5092828;28;20016;-69
2021/08/27 07:35:14;;;;;;;7.82;4.00;;;;;;;;;;5089097;28;20045;-69
2021/08/27 07:37:41;;;;;;;7.20;3.72;;;;;;;;;;5094150;28;20036;-69
2021/08/27 07:40:08;;;;;;;5.70;4.15;;;;;;;;;;5088760;28;20663;-69
2021/08/27 07:42:35;;;;;;;14.20;4.25;;;;;;;;;;5092351;28;20298;-69
2021/08/27 07:45:01;;;;;;;4.65;3.78;;;;;;;;;;5090177;28;20116;-69
2021/08/27 07:47:27;;;;;;;7.80;3.85;;;;;;;;;;5093036;28;20023;-69
2021/08/27 07:49:53;;;;;;;7.68;4.15;;;;;;;;;;5091664;28;20024;-69
2021/08/27 07:52:19;;;;;;;7.30;4.38;;;;;;;;;;5089536;28;20024;-69
2021/08/27 07:54:46;;;;;;;7.90;3.83;;;;;;;;;;5091589;28;20043;-69
2021/08/27 07:57:12;;;;;;;7.32;4.43;;;;;;;;;;5089873;28;20089;-69
2021/08/27 07:59:38;;;;;;;8.52;3.72;;;;;;;;;;5091989;28;20228;-69
2021/08/27 08:02:04;;;;;;;5.32;3.63;;;;;;;;;;5088716;28;20271;-69
2021/08/27 08:04:31;;;;;;;7.25;4.32;;;;;;;;;;5083864;28;20027;-69
2021/08/27 08:06:57;;;;;;;5.93;3.90;;;;;;;;;;5093082;28;20457;-69
2021/08/27 08:09:23;;;;;;;6.22;4.20;;;;;;;;;;5088962;28;20023;-70
2021/08/27 08:11:49;;;;;;;7.57;4.00;;;;;;;;;;5093346;28;20094;-70
2021/08/27 08:14:16;;;;;;;8.90;4.68;;;;;;;;;;5089705;28;20552;-66
2021/08/27 08:16:42;;;;;;;9.60;4.43;;;;;;;;;;5086799;28;20036;-66
2021/08/27 08:19:10;;;;;;;7.75;4.40;;;;;;;;;;5095554;28;20039;-65
2021/08/27 08:21:36;;;;;;;7.55;4.18;;;;;;;;;;5089608;28;20385;-66
2021/08/27 08:24:03;;;;;;;8.77;4.18;;;;;;;;;;5086670;28;20058;-65
2021/08/27 08:26:30;;;;;;;10.25;5.13;;;;;;;;;;5089581;28;20020;-65
2021/08/27 08:28:57;;;;;;;13.75;4.50;;;;;;;;;;5092051;28;20843;-66
2021/08/27 08:31:23;;;;;;;5.32;4.28;;;;;;;;;;5090799;28;20055;-66
2021/08/27 08:33:50;;;;;;;6.30;3.90;;;;;;;;;;5090653;28;20032;-66
2021/08/27 08:36:17;;;;;;;6.45;4.15;;;;;;;;;;5090477;28;20080;-66
2021/08/27 08:38:43;;;;;;;5.13;3.67;;;;;;;;;;5089805;28;20377;-67
2021/08/27 08:41:10;;;;;;;6.68;3.80;;;;;;;;;;5093911;28;20441;-66
2021/08/27 08:43:36;;;;;;;7.75;4.00;;;;;;;;;;5087140;28;20052;-65
2021/08/27 08:46:03;;;;;;;7.10;4.25;;;;;;;;;;5090434;28;20027;-65
2021/08/27 08:48:29;;;;;;;5.00;4.00;;;;;;;;;;5088600;28;20020;-65
2021/08/27 08:50:55;;;;;;;9.13;4.30;;;;;;;;;;5092756;28;20061;-65
2021/08/27 08:53:23;;;;;;;9.77;4.57;;;;;;;;;;5088564;28;20059;-65
2021/08/27 08:55:50;;;;;;;7.95;4.60;;;;;;;;;;5090639;28;20059;-66
2021/08/27 08:58:16;;;;;;;8.00;4.30;;;;;;;;;;5090882;28;20073;-66
2021/08/27 09:00:43;;;;;;;9.50;4.97;;;;;;;;;;5088260;28;20027;-66
2021/08/27 09:03:09;;;;;;;4.72;3.58;;;;;;;;;;5092070;28;20531;-66
2021/08/27 09:05:35;;;;;;;7.00;4.32;;;;;;;;;;5091813;28;20055;-66
2021/08/27 09:08:01;;;;;;;13.73;4.80;;;;;;;;;;5086744;28;20073;-66
2021/08/27 09:10:27;;;;;;;7.28;4.07;;;;;;;;;;5092836;28;20026;-66
2021/08/27 09:13:05;;;;;;;7.40;4.70;;;;;;;;;;5087167;28;20031;-66
2021/08/27 09:15:31;;;;;;;7.60;4.30;;;;;;;;;;5088343;28;20020;-65
2021/08/27 09:17:57;;;;;;;7.35;3.88;;;;;;;;;;5087748;28;20043;-66
2021/08/27 09:20:28;;;;;;;7.13;4.20;;;;;;;;;;5091085;28;20024;-66
2021/08/27 09:22:58;;;;;;;5.88;4.07;;;;;;;;;;5087610;28;20391;-66
2021/08/27 09:25:26;;;;;;;8.47;4.77;;;;;;;;;;5091690;28;20511;-65
2021/08/27 09:28:04;;;;;;;6.70;3.97;;;;;;;;;;5088771;28;20027;-66
2021/08/27 09:30:31;;;;;;;7.57;3.75;;;;;;;;;;5086282;28;20122;-66
2021/08/27 09:32:57;;;;;;;10.85;5.15;;;;;;;;;;5088850;28;20476;-66
2021/08/27 09:35:24;;;;;;;6.78;3.72;;;;;;;;;;5089635;28;20028;-65
2021/08/27 09:37:52;;;;;;;9.60;4.57;;;;;;;;;;5091516;28;20043;-66
2021/08/27 09:40:20;;;;;;;6.28;4.05;;;;;;;;;;5088303;28;20019;-66
2021/08/27 09:42:50;;;;;;;11.63;4.10;;;;;;;;;;5088488;28;20024;-65
2021/08/27 09:45:17;;;;;;;5.57;3.67;;;;;;;;;;5086893;28;20027;-66
2021/08/27 09:48:01;;;;;;;8.07;3.97;;;;;;;;;;5090524;28;20047;-66
2021/08/27 09:50:28;;;;;;;7.88;4.18;;;;;;;;;;5087520;28;20048;-65
2021/08/27 09:52:56;;;;;;;7.35;4.07;;;;;;;;;;5091095;28;20027;-66
2021/08/27 09:55:23;;;;;;;7.10;3.90;;;;;;;;;;5086469;28;20073;-66
2021/08/27 09:57:49;;;;;;;7.63;3.50;;;;;;;;;;5090102;28;20032;-66
2021/08/27 10:00:17;;;;;;;8.30;3.42;;;;;;;;;;5087949;28;20284;-66
2021/08/27 10:02:43;;;;;;;6.07;3.72;;;;;;;;;;5090297;28;20120;-66
2021/08/27 10:05:11;;;;;;;4.43;3.67;;;;;;;;;;5092806;28;20023;-66
2021/08/27 10:07:38;;;;;;;6.07;4.13;;;;;;;;;;5086945;28;20093;-66
2021/08/27 10:10:05;;;;;;;7.28;4.25;;;;;;;;;;5089077;28;20027;-66
2021/08/27 10:12:35;;;;;;;10.02;3.92;;;;;;;;;;5089366;28;20498;-66
2021/08/27 10:15:03;;;;;;;6.07;3.55;;;;;;;;;;5088307;28;20086;-65
2021/08/27 10:17:29;;;;;;;10.75;3.90;;;;;;;;;;5089375;28;20032;-65
2021/08/27 10:19:55;;;;;;;7.43;3.97;;;;;;;;;;5069170;28;20120;-65
2021/08/27 10:22:22;;;;;;;6.45;3.60;;;;;;;;;;5089119;28;20524;-65
2021/08/27 10:24:49;;;;;;;9.90;4.38;;;;;;;;;;5085099;28;20433;-65
2021/08/27 10:27:16;;;;;;;6.45;4.05;;;;;;;;;;5091021;28;20503;-65
2021/08/27 10:29:53;;;;;;;8.38;4.30;;;;;;;;;;5087608;28;20031;-65
2021/08/27 10:32:37;;;;;;;8.35;4.10;;;;;;;;;;5091793;28;20046;-66
2021/08/27 10:35:04;;;;;;;9.48;4.03;;;;;;;;;;5083744;28;20024;-66
2021/08/27 10:37:48;;;;;;;10.02;4.13;;;;;;;;;;5090610;28;20822;-65
2021/08/27 10:40:24;;;;;;;9.20;4.40;;;;;;;;;;5087018;28;20043;-65
2021/08/27 10:42:52;;;;;;;5.55;3.25;;;;;;;;;;5089884;28;20479;-66
2021/08/27 10:45:38;;;;;;;9.35;4.00;;;;;;;;;;5086428;28;20028;-66
2021/08/27 10:48:18;;;;;;;10.05;4.05;;;;;;;;;;5085919;28;20641;-65
2021/08/27 10:50:55;;;;;;;5.35;3.63;;;;;;;;;;5085155;28;20163;-67
2021/08/27 10:53:24;;;;;;;6.90;3.97;;;;;;;;;;5087745;28;20013;-65
2021/08/27 10:55:50;;;;;;;6.60;3.63;;;;;;;;;;5087256;28;20276;-65
2021/08/27 10:58:20;;;;;;;4.80;3.70;;;;;;;;;;5089992;28;20074;-66
2021/08/27 11:00:50;;;;;;;10.52;4.32;;;;;;;;;;5088022;28;20062;-68
2021/08/27 11:03:17;;;;;;;7.47;3.72;;;;;;;;;;5088495;28;20034;-65
2021/08/27 11:05:47;;;;;;;5.75;3.90;;;;;;;;;;5087151;28;20066;-66
2021/08/27 11:08:14;;;;;;;5.18;3.97;;;;;;;;;;5088357;28;20043;-66
2021/08/27 11:10:41;;;;;;;6.90;4.00;;;;;;;;;;5088903;28;20042;-66
2021/08/27 11:13:10;;;;;;;5.10;3.50;;;;;;;;;;5086811;28;20418;-66
2021/08/27 11:15:36;;;;;;;7.50;3.85;;;;;;;;;;5090299;28;20028;-66
2021/08/27 11:18:06;;;;;;;5.30;3.67;;;;;;;;;;5085206;28;20085;-66
2021/08/27 11:20:32;;;;;;;6.07;4.07;;;;;;;;;;5086969;28;20012;-67
2021/08/27 11:22:58;;;;;;;9.55;4.30;;;;;;;;;;5088448;28;20474;-70
2021/08/27 11:25:25;;;;;;;9.18;3.88;;;;;;;;;;5071137;28;20063;-70
2021/08/27 11:28:09;;;;;;;9.48;4.40;;;;;;;;;;5088026;28;20027;-70
2021/08/27 11:30:43;;;;;;;6.03;3.90;;;;;;;;;;5077800;28;20166;-69
2021/08/27 11:33:27;;;;;;;7.32;3.75;;;;;;;;;;5085163;28;20043;-67
2021/08/27 11:35:56;;;;;;;5.53;3.75;;;;;;;;;;5094057;27;20528;-68
2021/08/27 11:38:23;;;;;;;8.35;3.35;;;;;;;;;;5093098;28;20044;-67
2021/08/27 11:40:50;;;;;;;8.75;4.00;;;;;;;;;;5093354;28;20084;-67
2021/08/27 11:43:16;;;;;;;6.53;3.80;;;;;;;;;;5092853;28;20020;-67
2021/08/27 11:45:43;;;;;;;12.40;4.53;;;;;;;;;;5094732;28;20379;-70
2021/08/27 11:48:11;;;;;;;6.88;4.05;;;;;;;;;;5080129;28;20035;-67
2021/08/27 11:50:38;;;;;;;7.28;4.00;;;;;;;;;;5095404;28;20070;-67
2021/08/27 11:53:05;;;;;;;7.20;4.05;;;;;;;;;;5092901;28;20024;-67
2021/08/27 11:55:31;;;;;;;7.00;3.92;;;;;;;;;;5092287;28;20096;-68
2021/08/27 11:58:01;;;;;;;7.93;4.10;;;;;;;;;;5093444;28;20036;-68
2021/08/27 12:00:35;;;;;;;7.05;4.25;;;;;;;;;;5091658;28;20019;-71
2021/08/27 12:03:01;;;;;;;8.07;4.00;;;;;;;;;;5093107;28;20336;-68
2021/08/27 12:05:30;;;;;;;8.80;3.85;;;;;;;;;;5091723;28;20440;-69
2021/08/27 12:07:58;;;;;;;6.93;3.97;;;;;;;;;;5088415;28;20515;-69
2021/08/27 12:10:25;;;;;;;9.80;4.75;;;;;;;;;;5093891;28;20491;-69
2021/08/27 12:12:52;;;;;;;8.02;4.32;;;;;;;;;;5089728;28;20073;-69
2021/08/27 12:15:22;;;;;;;6.65;4.30;;;;;;;;;;5093638;28;20092;-72
2021/08/27 12:17:56;;;;;;;7.25;4.18;;;;;;;;;;5069917;28;20036;-68
2021/08/27 12:20:23;;;;;;;6.95;4.07;;;;;;;;;;5087937;28;20806;-68
2021/08/27 12:22:54;;;;;;;7.05;4.55;;;;;;;;;;5088792;28;20573;-68
2021/08/27 12:25:23;;;;;;;6.28;3.63;;;;;;;;;;5088472;28;20031;-68
2021/08/27 12:27:50;;;;;;;8.65;4.38;;;;;;;;;;5089528;28;20015;-73
2021/08/27 12:30:17;;;;;;;8.30;4.43;;;;;;;;;;5088024;28;20023;-67
2021/08/27 12:32:44;;;;;;;5.95;4.30;;;;;;;;;;5089418;28;20479;-71
2021/08/27 12:35:11;;;;;;;10.98;3.92;;;;;;;;;;5067279;28;20024;-67
2021/08/27 12:37:38;;;;;;;7.20;4.30;;;;;;;;;;5088794;28;20069;-68
2021/08/27 12:40:09;;;;;;;6.15;3.78;;;;;;;;;;5085121;28;20090;-68
2021/08/27 12:42:35;;;;;;;10.70;4.50;;;;;;;;;;5087866;28;20019;-68
2021/08/27 12:45:03;;;;;;;7.68;3.95;;;;;;;;;;5086874;28;20256;-68
2021/08/27 12:47:30;;;;;;;6.10;3.95;;;;;;;;;;5088211;28;20111;-68
2021/08/27 12:50:00;;;;;;;7.90;3.70;;;;;;;;;;5085292;28;20020;-67
2021/08/27 12:52:27;;;;;;;5.50;3.42;;;;;;;;;;5085781;28;20111;-67
2021/08/27 12:54:53;;;;;;;10.20;4.28;;;;;;;;;;5088269;28;20058;-67
2021/08/27 12:57:19;;;;;;;7.93;3.90;;;;;;;;;;5087085;28;20805;-67
2021/08/27 12:59:58;;;;;;;6.93;4.00;;;;;;;;;;5089980;28;20046;-71
2021/08/27 13:02:24;;;;;;;6.70;4.03;;;;;;;;;;5086517;28;20028;-68
2021/08/27 13:04:52;;;;;;;6.43;3.67;;;;;;;;;;5087327;28;20626;-68
2021/08/27 13:07:23;;;;;;;6.25;3.95;;;;;;;;;;5085345;28;20081;-68
2021/08/27 13:09:49;;;;;;;5.70;3.50;;;;;;;;;;5080820;28;20101;-67
2021/08/27 13:12:28;;;;;;;7.50;4.25;;;;;;;;;;5086790;28;20038;-67
2021/08/27 13:14:57;;;;;;;10.77;4.40;;;;;;;;;;5083804;28;20035;-67
2021/08/27 13:17:23;;;;;;;7.53;4.03;;;;;;;;;;5088805;28;20028;-67
2021/08/27 13:19:58;;;;;;;6.65;3.60;;;;;;;;;;5083100;28;20011;-70
2021/08/27 13:22:30;;;;;;;5.53;3.30;;;;;;;;;;5083815;28;20046;-67
2021/08/27 13:25:06;;;;;;;6.60;3.90;;;;;;;;;;5092386;28;20014;-72
2021/08/27 13:27:32;;;;;;;7.57;3.65;;;;;;;;;;5094042;28;20075;-68
2021/08/27 13:29:59;;;;;;;7.60;3.75;;;;;;;;;;5091364;28;20023;-68
2021/08/27 13:32:29;;;;;;;5.68;3.55;;;;;;;;;;5093414;28;20027;-68
2021/08/27 13:34:55;;;;;;;6.85;3.75;;;;;;;;;;5091423;28;20648;-68
2021/08/27 13:37:21;;;;;;;7.05;3.70;;;;;;;;;;5092130;28;20125;-74
2021/08/27 13:39:48;;;;;;;8.25;3.33;;;;;;;;;;5093687;28;20661;-74
2021/08/27 13:42:14;;;;;;;4.32;2.97;;;;;;;;;;5090529;28;20674;-68
2021/08/27 13:44:41;;;;;;;6.38;3.50;;;;;;;;;;5091175;28;20055;-68
2021/08/27 13:47:07;;;;;;;17.35;3.90;;;;;;;;;;5091613;28;20028;-68
2021/08/27 13:49:33;;;;;;;9.85;3.78;;;;;;;;;;5094238;28;20028;-69
2021/08/27 13:51:59;;;;;;;6.50;3.40;;;;;;;;;;5089354;28;20024;-68
2021/08/27 13:54:25;;;;;;;20.42;4.38;;;;;;;;;;5083694;28;20052;-69
2021/08/27 13:56:51;;;;;;;12.18;4.22;;;;;;;;;;5090180;28;20023;-69
2021/08/27 13:59:18;;;;;;;16.25;4.35;;;;;;;;;;5089024;28;20027;-70
2021/08/27 14:01:44;;;;;;;4.57;2.90;;;;;;;;;;5092577;28;20023;-68
2021/08/27 14:04:10;;;;;;;5.57;3.42;;;;;;;;;;5087468;28;20647;-75
2021/08/27 14:06:36;;;;;;;12.88;3.72;;;;;;;;;;5090425;28;20028;-68
2021/08/27 14:09:02;;;;;;;8.57;3.50;;;;;;;;;;5089253;28;20039;-70
2021/08/27 14:11:29;;;;;;;8.07;3.50;;;;;;;;;;5088181;28;20821;-68
2021/08/27 14:13:55;;;;;;;6.47;3.25;;;;;;;;;;5089718;28;20145;-68
2021/08/27 14:16:22;;;;;;;5.18;3.20;;;;;;;;;;5068544;28;20515;-68
2021/08/27 14:18:48;;;;;;;8.60;3.90;;;;;;;;;;5089369;28;20034;-68
2021/08/27 14:21:14;;;;;;;5.28;2.88;;;;;;;;;;5086238;28;20016;-68
2021/08/27 14:23:41;;;;;;;4.45;2.55;;;;;;;;;;5090542;28;20028;-68
2021/08/27 14:26:07;;;;;;;7.30;3.47;;;;;;;;;;5088176;28;20089;-68
2021/08/27 14:28:33;;;;;;;5.78;3.03;;;;;;;;;;5087194;28;20034;-67
2021/08/27 14:31:00;;;;;;;7.70;3.10;;;;;;;;;;5090175;28;20015;-68
2021/08/27 14:33:31;;;;;;;9.38;3.30;;;;;;;;;;5068900;28;20471;-68
2021/08/27 14:35:57;;;;;;;3.53;2.60;;;;;;;;;;5088005;28;20231;-68
2021/08/27 14:38:23;;;;;;;8.02;3.10;;;;;;;;;;5087213;28;20036;-67
2021/08/27 14:40:49;;;;;;;6.40;2.90;;;;;;;;;;5087217;28;20020;-67
2021/08/27 14:43:15;;;;;;;5.78;3.63;;;;;;;;;;5088361;28;20036;-67